sensor_id;sensor_type;location;lat;lon;timestamp;pressure;altitude;pressure_sealevel;temperature;humidity
17438;BME280;70275;52.198;5.422;2023-06-22T00:01:25;101865.78;;;19.58;68.69
17438;BME280;70275;52.198;5.422;2023-06-22T00:03:54;101868.38;;;19.83;68.16
17438;BME280;70275;52.198;5.422;2023-06-22T00:06:23;101865.47;;;19.69;68.28
17438;BME280;70275;52.198;5.422;2023-06-22T00:08:52;101863.84;;;19.84;68.18
17438;BME280;70275;52.198;5.422;2023-06-22T00:11:20;101863.84;;;19.92;67.66
17438;BME280;70275;52.198;5.422;2023-06-22T00:13:50;101864.22;;;19.97;67.36
17438;BME280;70275;52.198;5.422;2023-06-22T00:16:21;101860.16;;;20.01;67.55
17438;BME280;70275;52.198;5.422;2023-06-22T00:18:50;101865.06;;;20.14;67.12
17438;BME280;70275;52.198;5.422;2023-06-22T00:21:19;101860.50;;;20.06;67.05
17438;BME280;70275;52.198;5.422;2023-06-22T00:23:48;101866.56;;;20.08;67.16
17438;BME280;70275;52.198;5.422;2023-06-22T00:26:18;101864.56;;;20.02;67.11
17438;BME280;70275;52.198;5.422;2023-06-22T00:28:47;101863.53;;;19.95;67.44
17438;BME280;70275;52.198;5.422;2023-06-22T00:31:16;101866.72;;;19.98;67.50
17438;BME280;70275;52.198;5.422;2023-06-22T00:33:47;101858.13;;;19.87;67.45
17438;BME280;70275;52.198;5.422;2023-06-22T00:36:16;101861.66;;;19.87;67.80
17438;BME280;70275;52.198;5.422;2023-06-22T00:38:45;101857.28;;;19.86;67.84
17438;BME280;70275;52.198;5.422;2023-06-22T00:41:16;101853.09;;;19.84;68.00
17438;BME280;70275;52.198;5.422;2023-06-22T00:43:45;101844.19;;;19.08;70.46
17438;BME280;70275;52.198;5.422;2023-06-22T00:46:15;101837.00;;;18.83;71.54
17438;BME280;70275;52.198;5.422;2023-06-22T00:48:47;101836.88;;;18.92;71.27
17438;BME280;70275;52.198;5.422;2023-06-22T00:51:16;101833.34;;;18.92;71.62
17438;BME280;70275;52.198;5.422;2023-06-22T00:53:50;101834.53;;;19.23;70.27
17438;BME280;70275;52.198;5.422;2023-06-22T00:56:20;101830.34;;;19.28;70.00
17438;BME280;70275;52.198;5.422;2023-06-22T00:58:51;101841.00;;;19.04;70.56
17438;BME280;70275;52.198;5.422;2023-06-22T01:01:23;101838.91;;;18.98;71.28
17438;BME280;70275;52.198;5.422;2023-06-22T01:03:54;101842.41;;;19.16;70.52
17438;BME280;70275;52.198;5.422;2023-06-22T01:06:35;101835.31;;;19.15;70.66
17438;BME280;70275;52.198;5.422;2023-06-22T01:09:14;101834.94;;;19.02;71.47
17438;BME280;70275;52.198;5.422;2023-06-22T01:11:48;101839.88;;;18.89;71.92
17438;BME280;70275;52.198;5.422;2023-06-22T01:14:26;101828.78;;;18.41;73.60
17438;BME280;70275;52.198;5.422;2023-06-22T01:16:58;101829.13;;;18.63;72.79
17438;BME280;70275;52.198;5.422;2023-06-22T01:19:38;101834.47;;;18.81;72.19
17438;BME280;70275;52.198;5.422;2023-06-22T01:22:10;101834.69;;;18.62;72.80
17438;BME280;70275;52.198;5.422;2023-06-22T01:24:59;101840.81;;;18.72;72.67
17438;BME280;70275;52.198;5.422;2023-06-22T01:27:49;101848.19;;;18.70;72.71
17438;BME280;70275;52.198;5.422;2023-06-22T01:30:22;101846.38;;;18.53;72.91
17438;BME280;70275;52.198;5.422;2023-06-22T01:32:58;101838.72;;;18.66;72.60
17438;BME280;70275;52.198;5.422;2023-06-22T01:35:28;101825.13;;;18.42;73.66
17438;BME280;70275;52.198;5.422;2023-06-22T01:37:58;101829.59;;;18.16;74.54
17438;BME280;70275;52.198;5.422;2023-06-22T01:40:29;101842.88;;;18.43;73.44
17438;BME280;70275;52.198;5.422;2023-06-22T01:43:01;101836.44;;;18.36;73.89
17438;BME280;70275;52.198;5.422;2023-06-22T01:45:33;101838.81;;;18.56;73.47
17438;BME280;70275;52.198;5.422;2023-06-22T01:48:03;101828.03;;;18.48;73.98
17438;BME280;70275;52.198;5.422;2023-06-22T01:50:32;101828.25;;;18.55;73.78
17438;BME280;70275;52.198;5.422;2023-06-22T01:53:01;101832.94;;;18.53;73.74
17438;BME280;70275;52.198;5.422;2023-06-22T01:55:32;101833.25;;;18.50;74.07
17438;BME280;70275;52.198;5.422;2023-06-22T01:58:01;101831.13;;;18.18;74.90
17438;BME280;70275;52.198;5.422;2023-06-22T02:00:37;101827.88;;;18.15;75.29
17438;BME280;70275;52.198;5.422;2023-06-22T02:03:14;101819.31;;;17.93;76.65
17438;BME280;70275;52.198;5.422;2023-06-22T02:05:50;101818.72;;;17.99;76.51
17438;BME280;70275;52.198;5.422;2023-06-22T02:08:39;101815.19;;;17.99;76.48
17438;BME280;70275;52.198;5.422;2023-06-22T02:11:11;101821.38;;;18.17;75.83
17438;BME280;70275;52.198;5.422;2023-06-22T02:13:44;101820.81;;;18.31;74.93
17438;BME280;70275;52.198;5.422;2023-06-22T02:16:17;101824.81;;;18.27;75.04
17438;BME280;70275;52.198;5.422;2023-06-22T02:18:47;101816.59;;;18.29;75.10
17438;BME280;70275;52.198;5.422;2023-06-22T02:21:17;101819.63;;;18.26;75.00
17438;BME280;70275;52.198;5.422;2023-06-22T02:23:46;101816.00;;;18.17;75.29
17438;BME280;70275;52.198;5.422;2023-06-22T02:26:17;101815.88;;;18.19;75.52
17438;BME280;70275;52.198;5.422;2023-06-22T02:28:46;101808.88;;;18.26;74.83
17438;BME280;70275;52.198;5.422;2023-06-22T02:31:18;101803.31;;;17.84;76.67
17438;BME280;70275;52.198;5.422;2023-06-22T02:33:47;101808.56;;;17.93;76.14
17438;BME280;70275;52.198;5.422;2023-06-22T02:36:17;101804.53;;;17.89;76.95
17438;BME280;70275;52.198;5.422;2023-06-22T02:38:48;101810.38;;;18.02;76.20
17438;BME280;70275;52.198;5.422;2023-06-22T02:41:17;101806.59;;;17.95;76.14
17438;BME280;70275;52.198;5.422;2023-06-22T02:43:46;101816.41;;;17.69;77.20
17438;BME280;70275;52.198;5.422;2023-06-22T02:46:18;101809.97;;;17.97;76.17
17438;BME280;70275;52.198;5.422;2023-06-22T02:48:47;101811.81;;;17.97;75.68
17438;BME280;70275;52.198;5.422;2023-06-22T02:51:16;101808.66;;;18.01;75.33
17438;BME280;70275;52.198;5.422;2023-06-22T02:53:45;101812.41;;;17.73;76.49
17438;BME280;70275;52.198;5.422;2023-06-22T02:56:14;101807.91;;;17.74;76.58
17438;BME280;70275;52.198;5.422;2023-06-22T02:58:43;101804.06;;;17.76;76.12
17438;BME280;70275;52.198;5.422;2023-06-22T03:01:12;101800.00;;;17.90;75.89
17438;BME280;70275;52.198;5.422;2023-06-22T03:03:44;101804.22;;;17.75;75.81
17438;BME280;70275;52.198;5.422;2023-06-22T03:06:13;101805.06;;;17.48;76.72
17438;BME280;70275;52.198;5.422;2023-06-22T03:08:42;101804.81;;;17.69;75.80
17438;BME280;70275;52.198;5.422;2023-06-22T03:11:11;101811.34;;;17.84;75.39
17438;BME280;70275;52.198;5.422;2023-06-22T03:13:40;101814.28;;;17.90;74.70
17438;BME280;70275;52.198;5.422;2023-06-22T03:16:09;101803.31;;;17.84;74.88
17438;BME280;70275;52.198;5.422;2023-06-22T03:18:38;101801.31;;;17.86;75.01
17438;BME280;70275;52.198;5.422;2023-06-22T03:21:10;101803.28;;;17.66;75.61
17438;BME280;70275;52.198;5.422;2023-06-22T03:23:41;101801.22;;;17.60;75.49
17438;BME280;70275;52.198;5.422;2023-06-22T03:26:10;101801.22;;;17.60;75.56
17438;BME280;70275;52.198;5.422;2023-06-22T03:28:39;101802.38;;;17.75;75.18
17438;BME280;70275;52.198;5.422;2023-06-22T03:31:08;101806.13;;;17.82;74.87
17438;BME280;70275;52.198;5.422;2023-06-22T03:33:37;101808.41;;;17.77;74.79
17438;BME280;70275;52.198;5.422;2023-06-22T03:36:09;101794.94;;;17.69;75.29
17438;BME280;70275;52.198;5.422;2023-06-22T03:38:38;101797.53;;;17.61;75.13
17438;BME280;70275;52.198;5.422;2023-06-22T03:41:07;101799.09;;;17.81;74.65
17438;BME280;70275;52.198;5.422;2023-06-22T03:43:36;101783.31;;;17.78;75.01
17438;BME280;70275;52.198;5.422;2023-06-22T03:46:05;101785.59;;;17.56;75.78
17438;BME280;70275;52.198;5.422;2023-06-22T03:48:34;101786.06;;;17.51;76.01
17438;BME280;70275;52.198;5.422;2023-06-22T03:51:03;101787.13;;;17.58;75.63
17438;BME280;70275;52.198;5.422;2023-06-22T03:53:35;101785.22;;;17.41;76.24
17438;BME280;70275;52.198;5.422;2023-06-22T03:56:04;101790.22;;;17.09;78.13
17438;BME280;70275;52.198;5.422;2023-06-22T03:58:33;101777.78;;;17.08;78.16
17438;BME280;70275;52.198;5.422;2023-06-22T04:01:02;101779.19;;;17.12;77.85
17438;BME280;70275;52.198;5.422;2023-06-22T04:03:32;101786.94;;;17.42;76.65
17438;BME280;70275;52.198;5.422;2023-06-22T04:06:01;101784.31;;;17.50;76.66
17438;BME280;70275;52.198;5.422;2023-06-22T04:08:30;101779.13;;;17.49;76.45
17438;BME280;70275;52.198;5.422;2023-06-22T04:11:02;101778.59;;;17.18;77.52
17438;BME280;70275;52.198;5.422;2023-06-22T04:13:31;101772.75;;;17.32;77.42
17438;BME280;70275;52.198;5.422;2023-06-22T04:15:59;101773.13;;;17.37;76.92
17438;BME280;70275;52.198;5.422;2023-06-22T04:18:30;101775.91;;;17.18;77.59
17438;BME280;70275;52.198;5.422;2023-06-22T04:20:59;101772.94;;;17.21;77.66
17438;BME280;70275;52.198;5.422;2023-06-22T04:23:28;101769.38;;;17.03;78.94
17438;BME280;70275;52.198;5.422;2023-06-22T04:25:57;101772.94;;;17.21;78.36
17438;BME280;70275;52.198;5.422;2023-06-22T04:28:30;101761.16;;;17.14;78.79
17438;BME280;70275;52.198;5.422;2023-06-22T04:31:01;101764.09;;;17.11;79.03
17438;BME280;70275;52.198;5.422;2023-06-22T04:33:31;101767.09;;;17.35;78.47
17438;BME280;70275;52.198;5.422;2023-06-22T04:36:00;101769.38;;;17.48;78.18
17438;BME280;70275;52.198;5.422;2023-06-22T04:38:29;101771.94;;;17.49;78.08
17438;BME280;70275;52.198;5.422;2023-06-22T04:40:59;101765.69;;;17.76;77.39
17438;BME280;70275;52.198;5.422;2023-06-22T04:43:34;101769.16;;;17.41;77.79
17438;BME280;70275;52.198;5.422;2023-06-22T04:46:03;101769.50;;;17.28;79.07
17438;BME280;70275;52.198;5.422;2023-06-22T04:48:32;101772.66;;;17.69;78.24
17438;BME280;70275;52.198;5.422;2023-06-22T04:51:02;101779.03;;;17.68;77.80
17438;BME280;70275;52.198;5.422;2023-06-22T04:53:32;101774.72;;;17.57;78.94
17438;BME280;70275;52.198;5.422;2023-06-22T04:56:01;101773.88;;;17.74;78.55
17438;BME280;70275;52.198;5.422;2023-06-22T04:58:34;101773.78;;;18.01;77.69
17438;BME280;70275;52.198;5.422;2023-06-22T05:01:03;101786.31;;;17.93;78.39
17438;BME280;70275;52.198;5.422;2023-06-22T05:03:32;101790.31;;;18.15;77.97
17438;BME280;70275;52.198;5.422;2023-06-22T05:06:03;101791.63;;;18.11;78.42
17438;BME280;70275;52.198;5.422;2023-06-22T05:08:31;101782.06;;;18.26;77.59
17438;BME280;70275;52.198;5.422;2023-06-22T05:11:01;101783.72;;;18.27;78.02
17438;BME280;70275;52.198;5.422;2023-06-22T05:13:32;101784.75;;;18.08;79.13
17438;BME280;70275;52.198;5.422;2023-06-22T05:16:01;101781.41;;;18.32;79.00
17438;BME280;70275;52.198;5.422;2023-06-22T05:18:32;101778.47;;;18.43;78.55
17438;BME280;70275;52.198;5.422;2023-06-22T05:21:01;101779.50;;;18.24;79.09
17438;BME280;70275;52.198;5.422;2023-06-22T05:23:30;101782.69;;;18.63;78.30
17438;BME280;70275;52.198;5.422;2023-06-22T05:25:59;101783.88;;;18.68;77.34
17438;BME280;70275;52.198;5.422;2023-06-22T05:28:28;101781.25;;;18.51;78.86
17438;BME280;70275;52.198;5.422;2023-06-22T05:30:59;101780.03;;;19.05;77.23
17438;BME280;70275;52.198;5.422;2023-06-22T05:33:30;101778.94;;;18.90;76.56
17438;BME280;70275;52.198;5.422;2023-06-22T05:35:59;101783.06;;;19.10;76.83
17438;BME280;70275;52.198;5.422;2023-06-22T05:38:28;101785.44;;;19.47;75.20
17438;BME280;70275;52.198;5.422;2023-06-22T05:40:57;101786.16;;;18.89;76.88
17438;BME280;70275;52.198;5.422;2023-06-22T05:43:26;101780.97;;;19.29;75.61
17438;BME280;70275;52.198;5.422;2023-06-22T05:45:55;101782.66;;;19.30;76.00
17438;BME280;70275;52.198;5.422;2023-06-22T05:48:27;101789.84;;;19.72;74.22
17438;BME280;70275;52.198;5.422;2023-06-22T05:50:56;101785.47;;;19.21;75.64
17438;BME280;70275;52.198;5.422;2023-06-22T05:53:25;101784.38;;;18.98;75.93
17438;BME280;70275;52.198;5.422;2023-06-22T05:55:54;101785.00;;;19.25;75.09
17438;BME280;70275;52.198;5.422;2023-06-22T05:58:23;101793.91;;;19.84;73.53
17438;BME280;70275;52.198;5.422;2023-06-22T06:00:52;101804.59;;;19.68;73.65
17438;BME280;70275;52.198;5.422;2023-06-22T06:03:21;101796.31;;;19.37;75.06
17438;BME280;70275;52.198;5.422;2023-06-22T06:05:53;101803.63;;;19.61;74.50
17438;BME280;70275;52.198;5.422;2023-06-22T06:08:22;101809.44;;;20.30;72.15
17438;BME280;70275;52.198;5.422;2023-06-22T06:10:51;101802.00;;;20.40;71.00
17438;BME280;70275;52.198;5.422;2023-06-22T06:13:21;101793.25;;;20.14;72.61
17438;BME280;70275;52.198;5.422;2023-06-22T06:15:50;101789.69;;;20.54;71.04
17438;BME280;70275;52.198;5.422;2023-06-22T06:18:21;101782.19;;;21.04;69.53
17438;BME280;70275;52.198;5.422;2023-06-22T06:20:52;101789.97;;;20.75;69.82
17438;BME280;70275;52.198;5.422;2023-06-22T06:23:21;101789.25;;;21.05;69.41
17438;BME280;70275;52.198;5.422;2023-06-22T06:25:50;101786.06;;;20.94;70.24
17438;BME280;70275;52.198;5.422;2023-06-22T06:28:19;101777.41;;;20.67;69.78
17438;BME280;70275;52.198;5.422;2023-06-22T06:30:48;101781.47;;;21.18;69.41
17438;BME280;70275;52.198;5.422;2023-06-22T06:33:19;101784.13;;;22.02;66.55
17438;BME280;70275;52.198;5.422;2023-06-22T06:35:48;101781.53;;;22.32;65.26
17438;BME280;70275;52.198;5.422;2023-06-22T06:38:19;101776.78;;;21.96;66.46
17438;BME280;70275;52.198;5.422;2023-06-22T06:40:49;101771.91;;;20.92;68.73
17438;BME280;70275;52.198;5.422;2023-06-22T06:43:18;101768.44;;;22.06;66.13
17438;BME280;70275;52.198;5.422;2023-06-22T06:45:47;101764.38;;;22.25;65.31
17438;BME280;70275;52.198;5.422;2023-06-22T06:48:16;101769.03;;;24.04;59.81
17438;BME280;70275;52.198;5.422;2023-06-22T06:50:45;101766.50;;;24.24;58.50
17438;BME280;70275;52.198;5.422;2023-06-22T06:53:14;101767.75;;;24.49;58.13
17438;BME280;70275;52.198;5.422;2023-06-22T06:55:46;101764.19;;;24.49;58.28
17438;BME280;70275;52.198;5.422;2023-06-22T06:58:15;101764.34;;;24.13;58.62
17438;BME280;70275;52.198;5.422;2023-06-22T07:00:43;101768.59;;;23.80;59.40
17438;BME280;70275;52.198;5.422;2023-06-22T07:03:13;101770.44;;;24.00;59.84
17438;BME280;70275;52.198;5.422;2023-06-22T07:05:42;101765.53;;;24.59;56.78
17438;BME280;70275;52.198;5.422;2023-06-22T07:08:11;101765.91;;;25.85;54.77
17438;BME280;70275;52.198;5.422;2023-06-22T07:10:40;101758.66;;;24.63;56.78
17438;BME280;70275;52.198;5.422;2023-06-22T07:13:11;101762.50;;;25.64;54.89
17438;BME280;70275;52.198;5.422;2023-06-22T07:15:40;101758.38;;;26.07;53.64
17438;BME280;70275;52.198;5.422;2023-06-22T07:18:09;101755.84;;;25.86;54.00
17438;BME280;70275;52.198;5.422;2023-06-22T07:20:38;101754.66;;;26.21;52.81
17438;BME280;70275;52.198;5.422;2023-06-22T07:23:08;101747.50;;;26.59;52.00
17438;BME280;70275;52.198;5.422;2023-06-22T07:25:36;101752.78;;;26.22;52.40
17438;BME280;70275;52.198;5.422;2023-06-22T07:28:07;101747.75;;;24.78;55.50
17438;BME280;70275;52.198;5.422;2023-06-22T07:30:39;101757.31;;;25.15;55.76
17438;BME280;70275;52.198;5.422;2023-06-22T07:33:09;101759.44;;;25.26;54.67
17438;BME280;70275;52.198;5.422;2023-06-22T07:35:37;101763.13;;;25.66;54.13
17438;BME280;70275;52.198;5.422;2023-06-22T07:38:07;101759.47;;;26.12;52.43
17438;BME280;70275;52.198;5.422;2023-06-22T07:40:36;101762.34;;;26.04;52.91
17438;BME280;70275;52.198;5.422;2023-06-22T07:43:05;101753.59;;;26.48;51.86
17438;BME280;70275;52.198;5.422;2023-06-22T07:45:34;101754.38;;;26.75;51.21
17438;BME280;70275;52.198;5.422;2023-06-22T07:48:06;101750.88;;;26.29;51.48
17438;BME280;70275;52.198;5.422;2023-06-22T07:50:35;101743.13;;;26.06;52.34
17438;BME280;70275;52.198;5.422;2023-06-22T07:53:04;101742.28;;;25.92;51.24
17438;BME280;70275;52.198;5.422;2023-06-22T07:55:33;101732.47;;;25.78;52.69
17438;BME280;70275;52.198;5.422;2023-06-22T07:58:02;101734.59;;;25.16;53.63
17438;BME280;70275;52.198;5.422;2023-06-22T08:00:31;101724.84;;;24.87;55.40
17438;BME280;70275;52.198;5.422;2023-06-22T08:03:00;101738.28;;;25.75;52.94
17438;BME280;70275;52.198;5.422;2023-06-22T08:05:32;101735.41;;;25.83;51.67
17438;BME280;70275;52.198;5.422;2023-06-22T08:08:01;101726.63;;;26.34;51.40
17438;BME280;70275;52.198;5.422;2023-06-22T08:10:30;101723.41;;;26.69;50.33
17438;BME280;70275;52.198;5.422;2023-06-22T08:12:59;101723.25;;;26.45;50.85
17438;BME280;70275;52.198;5.422;2023-06-22T08:15:28;101719.31;;;26.14;50.63
17438;BME280;70275;52.198;5.422;2023-06-22T08:17:57;101713.03;;;26.34;51.39
17438;BME280;70275;52.198;5.422;2023-06-22T08:20:27;101701.22;;;26.72;50.75
17438;BME280;70275;52.198;5.422;2023-06-22T08:22:58;101705.00;;;26.71;50.13
17438;BME280;70275;52.198;5.422;2023-06-22T08:25:32;101708.81;;;25.59;52.24
17438;BME280;70275;52.198;5.422;2023-06-22T08:28:01;101699.75;;;25.32;51.65
17438;BME280;70275;52.198;5.422;2023-06-22T08:30:30;101697.91;;;26.64;50.55
17438;BME280;70275;52.198;5.422;2023-06-22T08:32:59;101686.06;;;27.03;48.94
17438;BME280;70275;52.198;5.422;2023-06-22T08:35:28;101683.25;;;26.71;48.40
17438;BME280;70275;52.198;5.422;2023-06-22T08:38:00;101688.63;;;26.91;48.97
17438;BME280;70275;52.198;5.422;2023-06-22T08:40:29;101673.53;;;26.95;47.77
17438;BME280;70275;52.198;5.422;2023-06-22T08:42:58;101674.63;;;26.10;50.00
17438;BME280;70275;52.198;5.422;2023-06-22T08:45:27;101673.91;;;27.05;47.60
17438;BME280;70275;52.198;5.422;2023-06-22T08:47:57;101670.84;;;26.11;50.25
17438;BME280;70275;52.198;5.422;2023-06-22T08:50:26;101667.75;;;26.72;48.69
17438;BME280;70275;52.198;5.422;2023-06-22T08:52:55;101669.44;;;26.79;47.85
17438;BME280;70275;52.198;5.422;2023-06-22T08:55:27;101664.22;;;26.65;47.94
17438;BME280;70275;52.198;5.422;2023-06-22T08:57:56;101660.75;;;26.38;47.86
17438;BME280;70275;52.198;5.422;2023-06-22T09:00:25;101659.09;;;27.01;47.47
17438;BME280;70275;52.198;5.422;2023-06-22T09:02:55;101656.25;;;26.70;48.08
17438;BME280;70275;52.198;5.422;2023-06-22T09:05:24;101664.06;;;26.60;47.20
17438;BME280;70275;52.198;5.422;2023-06-22T09:07:54;101659.13;;;26.17;47.01
17438;BME280;70275;52.198;5.422;2023-06-22T09:10:27;101660.72;;;25.27;47.51
17438;BME280;70275;52.198;5.422;2023-06-22T09:12:56;101655.44;;;26.63;45.51
17438;BME280;70275;52.198;5.422;2023-06-22T09:15:26;101653.06;;;26.86;46.47
17438;BME280;70275;52.198;5.422;2023-06-22T09:17:54;101661.84;;;27.39;45.14
17438;BME280;70275;52.198;5.422;2023-06-22T09:20:23;101655.47;;;27.07;44.88
17438;BME280;70275;52.198;5.422;2023-06-22T09:22:52;101662.56;;;27.15;45.42
17438;BME280;70275;52.198;5.422;2023-06-22T09:25:21;101658.81;;;27.09;45.80
17438;BME280;70275;52.198;5.422;2023-06-22T09:27:53;101654.88;;;27.99;43.92
17438;BME280;70275;52.198;5.422;2023-06-22T09:30:22;101655.84;;;27.55;45.07
17438;BME280;70275;52.198;5.422;2023-06-22T09:32:51;101658.59;;;27.98;44.06
17438;BME280;70275;52.198;5.422;2023-06-22T09:35:20;101659.66;;;28.58;43.14
17438;BME280;70275;52.198;5.422;2023-06-22T09:37:52;101660.75;;;28.57;42.47
17438;BME280;70275;52.198;5.422;2023-06-22T09:40:21;101656.88;;;28.46;42.48
17438;BME280;70275;52.198;5.422;2023-06-22T09:42:53;101655.50;;;28.92;42.17
17438;BME280;70275;52.198;5.422;2023-06-22T09:45:22;101659.28;;;28.90;42.42
17438;BME280;70275;52.198;5.422;2023-06-22T09:47:51;101649.53;;;29.31;42.15
17438;BME280;70275;52.198;5.422;2023-06-22T09:50:20;101653.50;;;28.69;44.71
17438;BME280;70275;52.198;5.422;2023-06-22T09:52:49;101651.91;;;28.43;44.91
17438;BME280;70275;52.198;5.422;2023-06-22T09:55:20;101653.69;;;27.26;48.27
17438;BME280;70275;52.198;5.422;2023-06-22T09:57:52;101650.06;;;27.70;47.15
17438;BME280;70275;52.198;5.422;2023-06-22T10:00:21;101650.63;;;26.78;49.23
17438;BME280;70275;52.198;5.422;2023-06-22T10:02:53;101634.88;;;25.96;50.63
17438;BME280;70275;52.198;5.422;2023-06-22T10:05:22;101650.97;;;25.91;52.06
17438;BME280;70275;52.198;5.422;2023-06-22T10:07:51;101642.00;;;25.58;52.96
17438;BME280;70275;52.198;5.422;2023-06-22T10:10:20;101637.38;;;26.04;51.98
17438;BME280;70275;52.198;5.422;2023-06-22T10:12:57;101629.00;;;26.26;51.45
17438;BME280;70275;52.198;5.422;2023-06-22T10:15:31;101637.56;;;26.09;51.65
17438;BME280;70275;52.198;5.422;2023-06-22T10:18:00;101640.53;;;25.75;53.21
17438;BME280;70275;52.198;5.422;2023-06-22T10:20:29;101647.22;;;26.89;50.48
17438;BME280;70275;52.198;5.422;2023-06-22T10:22:58;101641.94;;;26.43;51.92
17438;BME280;70275;52.198;5.422;2023-06-22T10:25:27;101638.25;;;25.79;52.51
17438;BME280;70275;52.198;5.422;2023-06-22T10:27:59;101639.28;;;25.45;53.67
17438;BME280;70275;52.198;5.422;2023-06-22T10:30:28;101629.19;;;24.65;56.58
17438;BME280;70275;52.198;5.422;2023-06-22T10:32:57;101634.97;;;24.90;55.14
17438;BME280;70275;52.198;5.422;2023-06-22T10:35:26;101637.41;;;25.78;53.53
17438;BME280;70275;52.198;5.422;2023-06-22T10:37:55;101639.59;;;24.55;55.33
17438;BME280;70275;52.198;5.422;2023-06-22T10:40:25;101641.56;;;24.34;55.60
17438;BME280;70275;52.198;5.422;2023-06-22T10:42:54;101641.38;;;25.63;53.81
17438;BME280;70275;52.198;5.422;2023-06-22T10:45:26;101643.47;;;25.80;51.97
17438;BME280;70275;52.198;5.422;2023-06-22T10:47:55;101644.69;;;25.45;52.06
17438;BME280;70275;52.198;5.422;2023-06-22T10:50:25;101644.38;;;25.01;54.37
17438;BME280;70275;52.198;5.422;2023-06-22T10:52:54;101636.00;;;25.02;54.58
17438;BME280;70275;52.198;5.422;2023-06-22T10:55:24;101654.84;;;25.17;52.94
17438;BME280;70275;52.198;5.422;2023-06-22T10:57:53;101649.66;;;25.35;52.38
17438;BME280;70275;52.198;5.422;2023-06-22T11:00:22;101647.03;;;24.81;53.71
17438;BME280;70275;52.198;5.422;2023-06-22T11:02:53;101653.81;;;25.18;53.62
17438;BME280;70275;52.198;5.422;2023-06-22T11:05:24;101655.22;;;25.01;54.18
17438;BME280;70275;52.198;5.422;2023-06-22T11:07:53;101647.09;;;25.01;54.59
17438;BME280;70275;52.198;5.422;2023-06-22T11:10:22;101645.34;;;25.80;52.94
17438;BME280;70275;52.198;5.422;2023-06-22T11:12:52;101644.50;;;26.05;52.78
17438;BME280;70275;52.198;5.422;2023-06-22T11:15:21;101646.97;;;26.07;52.42
17438;BME280;70275;52.198;5.422;2023-06-22T11:17:53;101638.66;;;25.56;52.99
17438;BME280;70275;52.198;5.422;2023-06-22T11:20:22;101645.06;;;25.42;53.12
17438;BME280;70275;52.198;5.422;2023-06-22T11:22:51;101636.16;;;25.61;52.97
17438;BME280;70275;52.198;5.422;2023-06-22T11:25:21;101636.22;;;24.94;54.07
17438;BME280;70275;52.198;5.422;2023-06-22T11:27:50;101636.69;;;25.17;53.27
17438;BME280;70275;52.198;5.422;2023-06-22T11:30:19;101631.66;;;25.08;53.98
17438;BME280;70275;52.198;5.422;2023-06-22T11:32:49;101620.03;;;25.40;53.77
17438;BME280;70275;52.198;5.422;2023-06-22T11:35:20;101621.75;;;25.54;53.93
17438;BME280;70275;52.198;5.422;2023-06-22T11:37:49;101614.44;;;25.61;53.59
17438;BME280;70275;52.198;5.422;2023-06-22T11:40:18;101617.72;;;25.37;54.06
17438;BME280;70275;52.198;5.422;2023-06-22T11:42:48;101607.16;;;25.48;53.81
17438;BME280;70275;52.198;5.422;2023-06-22T11:45:18;101607.50;;;25.98;52.99
17438;BME280;70275;52.198;5.422;2023-06-22T11:47:47;101607.13;;;26.65;51.17
17438;BME280;70275;52.198;5.422;2023-06-22T11:50:16;101603.50;;;26.07;52.59
17438;BME280;70275;52.198;5.422;2023-06-22T11:52:48;101603.00;;;26.49;50.62
17438;BME280;70275;52.198;5.422;2023-06-22T11:55:18;101596.81;;;26.09;52.45
17438;BME280;70275;52.198;5.422;2023-06-22T11:57:55;101592.38;;;27.23;49.92
17438;BME280;70275;52.198;5.422;2023-06-22T12:00:26;101596.94;;;26.47;51.30
17438;BME280;70275;52.198;5.422;2023-06-22T12:02:56;101582.91;;;25.60;53.61
17438;BME280;70275;52.198;5.422;2023-06-22T12:05:25;101587.06;;;25.36;53.31
17438;BME280;70275;52.198;5.422;2023-06-22T12:07:57;101578.91;;;25.36;53.56
17438;BME280;70275;52.198;5.422;2023-06-22T12:10:27;101585.97;;;26.03;51.97
17438;BME280;70275;52.198;5.422;2023-06-22T12:12:56;101580.19;;;25.67;52.53
17438;BME280;70275;52.198;5.422;2023-06-22T12:15:26;101581.34;;;26.30;51.43
17438;BME280;70275;52.198;5.422;2023-06-22T12:17:55;101580.19;;;25.73;52.71
17438;BME280;70275;52.198;5.422;2023-06-22T12:20:25;101573.25;;;26.61;50.80
17438;BME280;70275;52.198;5.422;2023-06-22T12:22:57;101580.72;;;26.72;50.95
17438;BME280;70275;52.198;5.422;2023-06-22T12:25:26;101573.78;;;26.38;51.54
17438;BME280;70275;52.198;5.422;2023-06-22T12:27:55;101569.91;;;26.59;50.77
17438;BME280;70275;52.198;5.422;2023-06-22T12:31:07;101572.47;;;25.57;52.56
17438;BME280;70275;52.198;5.422;2023-06-22T12:33:36;101564.50;;;25.23;52.28
17438;BME280;70275;52.198;5.422;2023-06-22T12:36:05;101565.94;;;24.93;53.42
17438;BME280;70275;52.198;5.422;2023-06-22T12:38:37;101559.06;;;25.10;52.84
17438;BME280;70275;52.198;5.422;2023-06-22T12:41:06;101551.31;;;24.94;53.00
17438;BME280;70275;52.198;5.422;2023-06-22T12:43:35;101545.09;;;25.13;52.63
17438;BME280;70275;52.198;5.422;2023-06-22T12:46:04;101569.72;;;25.11;52.91
17438;BME280;70275;52.198;5.422;2023-06-22T12:48:33;101549.66;;;24.99;53.00
17438;BME280;70275;52.198;5.422;2023-06-22T12:51:07;101562.16;;;24.87;53.10
17438;BME280;70275;52.198;5.422;2023-06-22T12:53:39;101542.69;;;24.23;53.73
17438;BME280;70275;52.198;5.422;2023-06-22T12:56:09;101549.47;;;24.40;54.42
17438;BME280;70275;52.198;5.422;2023-06-22T12:58:38;101548.66;;;24.46;55.22
17438;BME280;70275;52.198;5.422;2023-06-22T13:01:07;101545.75;;;24.07;55.29
17438;BME280;70275;52.198;5.422;2023-06-22T13:03:36;101541.91;;;24.29;56.75
17438;BME280;70275;52.198;5.422;2023-06-22T13:06:05;101543.81;;;24.42;57.34